Time;durP1;ratioP1;P1;durP2;ratioP2;P2;SDS_P1;SDS_P2;PMS_P1;PMS_P2;Temp;Humidity;BMP_temperature;BMP_pressure;BME280_temperature;BME280_humidity;BME280_pressure;Samples;Min_cycle;Max_cycle;Signal;HPM_P1;HPM_P2
2022/01/10 00:00:13;;;;;;;;;26.75;25.50;;;;;8.69;100.00;100747.06;5035640;28;45359;-78
2022/01/10 00:02:40;;;;;;;;;40.50;36.25;;;;;8.66;100.00;100746.09;5016109;28;45385;-80
2022/01/10 00:05:06;;;;;;;;;32.75;28.25;;;;;8.65;100.00;100751.16;5020457;28;45578;-80
2022/01/10 00:07:31;;;;;;;;;35.75;31.50;;;;;8.66;100.00;100758.09;5034379;28;46721;-80
2022/01/10 00:09:57;;;;;;;;;39.75;34.75;;;;;8.66;100.00;100750.34;5035429;28;45240;-80
2022/01/10 00:12:23;;;;;;;;;35.25;31.00;;;;;8.65;100.00;100757.22;5036420;28;45247;-81
2022/01/10 00:14:48;;;;;;;;;34.75;28.50;;;;;8.67;100.00;100762.44;5035486;28;45293;-80
2022/01/10 00:17:14;;;;;;;;;27.25;26.00;;;;;8.68;100.00;100769.38;5035915;28;46155;-81
2022/01/10 00:19:39;;;;;;;;;33.50;30.75;;;;;8.71;100.00;100778.97;5036368;28;45374;-80
2022/01/10 00:22:07;;;;;;;;;32.75;25.75;;;;;8.72;100.00;100791.09;5016872;28;45403;-82
2022/01/10 00:24:33;;;;;;;;;26.75;23.50;;;;;8.73;100.00;100788.59;5038371;28;45494;-81
2022/01/10 00:26:59;;;;;;;;;31.00;30.00;;;;;8.73;100.00;100786.00;5037060;28;45464;-82
2022/01/10 00:29:24;;;;;;;;;32.00;28.50;;;;;8.74;100.00;100779.16;5043268;28;45390;-82
2022/01/10 00:31:50;;;;;;;;;27.75;26.75;;;;;8.73;100.00;100782.53;5036168;28;45373;-81
2022/01/10 00:34:16;;;;;;;;;35.75;32.00;;;;;8.70;100.00;100785.84;5036518;28;45493;-82
2022/01/10 00:36:42;;;;;;;;;33.25;32.50;;;;;8.69;100.00;100790.94;5035606;28;45983;-82
2022/01/10 00:39:07;;;;;;;;;42.25;35.75;;;;;8.69;100.00;100796.09;5035331;28;45257;-83
2022/01/10 00:41:33;;;;;;;;;36.50;33.00;;;;;8.67;100.00;100794.31;5035876;28;45395;-82
2022/01/10 00:44:01;;;;;;;;;28.75;26.00;;;;;8.67;100.00;100802.06;5035788;28;45463;-82
2022/01/10 00:46:27;;;;;;;;;26.75;26.00;;;;;8.68;100.00;100800.34;5035503;28;46174;-82
2022/01/10 04:30:02;;;;;;;;;63.00;47.00;;;;;7.63;100.00;101085.84;5014453;28;45747;-82
2022/01/10 04:32:30;;;;;;;;;60.00;46.75;;;;;7.58;100.00;101088.16;5015622;28;45287;-82
2022/01/10 04:34:56;;;;;;;;;57.50;47.25;;;;;7.59;100.00;101089.94;5015312;28;45430;-82
2022/01/10 04:37:21;;;;;;;;;57.75;47.50;;;;;7.61;100.00;101090.03;5016153;28;45257;-82
2022/01/10 04:39:47;;;;;;;;;60.00;48.25;;;;;7.64;100.00;101096.25;5016083;28;45483;-81
2022/01/10 04:42:13;;;;;;;;;56.75;43.25;;;;;7.62;100.00;101094.38;5015331;28;46097;-82
2022/01/10 04:44:38;;;;;;;;;58.75;46.50;;;;;7.56;100.00;101097.47;5015899;28;45320;-81
2022/01/10 04:47:05;;;;;;;;;57.25;47.00;;;;;7.55;100.00;101113.72;5018661;28;45176;-82
2022/01/10 04:49:41;;;;;;;;;62.00;49.25;;;;;7.56;100.00;101118.97;5021888;28;45678;-82
2022/01/10 04:52:07;;;;;;;;;55.00;45.25;;;;;7.55;100.00;101121.44;5019327;28;46119;-82
2022/01/10 04:54:32;;;;;;;;;59.50;47.00;;;;;7.56;100.00;101130.97;5019258;28;45343;-82
2022/01/10 04:56:58;;;;;;;;;57.50;46.50;;;;;7.52;100.00;101127.31;5018854;28;45318;-81
2022/01/10 04:59:24;;;;;;;;;56.25;45.25;;;;;7.52;100.00;101140.19;5019448;28;45561;-81
2022/01/10 05:01:49;;;;;;;;;59.50;49.00;;;;;7.52;100.00;101142.78;5018971;28;45812;-79
2022/01/10 05:04:15;;;;;;;;;58.50;46.50;;;;;7.54;100.00;101141.19;5019165;28;45323;-81
2022/01/10 05:06:42;;;;;;;;;59.75;48.50;;;;;7.54;100.00;101145.44;5018950;28;45355;-81
2022/01/10 05:09:08;;;;;;;;;58.00;47.75;;;;;7.52;100.00;101145.34;5019074;28;45300;-81
2022/01/10 05:11:36;;;;;;;;;63.25;48.75;;;;;7.52;100.00;101147.91;5018820;28;46173;-82
2022/01/10 05:14:02;;;;;;;;;48.25;42.50;;;;;7.54;100.00;101151.50;5018602;28;46042;-80
2022/01/10 05:16:28;;;;;;;;;57.00;46.75;;;;;7.54;100.00;101161.81;5022053;28;45342;-80
2022/01/10 05:18:53;;;;;;;;;57.50;47.25;;;;;7.57;100.00;101161.09;5021700;28;45966;-80
2022/01/10 05:21:20;;;;;;;;;58.00;47.25;;;;;7.58;100.00;101162.88;5018953;28;46101;-81
2022/01/10 05:23:46;;;;;;;;;59.75;48.75;;;;;7.55;100.00;101166.16;5018755;28;45995;-80
2022/01/10 05:26:12;;;;;;;;;60.50;49.25;;;;;7.53;100.00;101172.00;5000584;28;45309;-81
2022/01/10 05:28:37;;;;;;;;;59.25;47.75;;;;;7.51;100.00;101182.22;5018804;28;45470;-81
2022/01/10 05:31:03;;;;;;;;;53.00;42.50;;;;;7.47;100.00;101181.91;5018188;28;45547;-81
2022/01/10 05:33:29;;;;;;;;;58.00;46.75;;;;;7.46;100.00;101180.13;5018574;28;45241;-81
2022/01/10 05:35:55;;;;;;;;;58.50;49.00;;;;;7.43;100.00;101184.28;5018407;28;45430;-80
2022/01/10 05:38:20;;;;;;;;;61.75;47.50;;;;;7.40;100.00;101194.41;5019070;28;45402;-81
2022/01/10 05:40:46;;;;;;;;;57.75;47.50;;;;;7.39;100.00;101195.22;5018430;28;45617;-81
2022/01/10 05:43:12;;;;;;;;;61.75;48.25;;;;;7.39;100.00;101195.22;5018192;28;45354;-82
2022/01/10 05:45:38;;;;;;;;;57.50;47.75;;;;;7.34;100.00;101201.75;5005464;28;45466;-81
2022/01/10 05:48:10;;;;;;;;;61.25;49.50;;;;;7.33;100.00;101202.53;5025087;28;45639;-81
2022/01/10 05:50:37;;;;;;;;;60.50;49.50;;;;;7.33;100.00;101209.38;5041728;28;46251;-81
2022/01/10 05:53:04;;;;;;;;;57.00;46.00;;;;;7.33;100.00;101217.97;5038683;28;45815;-81
2022/01/10 05:55:30;;;;;;;;;61.50;51.75;;;;;7.31;100.00;101219.56;5023661;28;45297;-81
2022/01/10 05:57:56;;;;;;;;;63.25;50.75;;;;;7.32;100.00;101217.91;5037990;28;45810;-79
2022/01/10 06:00:22;;;;;;;;;62.00;48.75;;;;;7.30;100.00;101219.47;5021094;28;47726;-81
2022/01/10 06:02:48;;;;;;;;;60.25;47.75;;;;;7.30;100.00;101238.38;5038502;28;45247;-81
2022/01/10 06:05:13;;;;;;;;;60.75;48.75;;;;;7.28;100.00;101237.41;5039741;28;45238;-81
2022/01/10 06:07:39;;;;;;;;;57.25;46.50;;;;;7.24;100.00;101243.16;5054413;28;45502;-83
2022/01/10 06:10:06;;;;;;;;;57.25;47.25;;;;;7.27;100.00;101251.97;5038356;28;45449;-81
2022/01/10 06:12:32;;;;;;;;;59.75;48.50;;;;;7.28;100.00;101246.03;5038457;28;45480;-81
2022/01/10 06:14:58;;;;;;;;;63.25;50.50;;;;;7.27;100.00;101253.66;5043107;28;45343;-82
2022/01/10 06:17:23;;;;;;;;;65.00;52.25;;;;;7.23;100.00;101265.44;5022275;28;45594;-79
2022/01/10 06:19:49;;;;;;;;;61.75;50.25;;;;;7.21;100.00;101281.56;5038499;28;45393;-79
2022/01/10 06:22:15;;;;;;;;;63.25;50.00;;;;;7.20;100.00;101278.13;5038472;28;45370;-82
2022/01/10 06:24:40;;;;;;;;;61.00;50.00;;;;;7.21;100.00;101279.91;5038713;28;45304;-82
2022/01/10 06:27:06;;;;;;;;;58.75;47.50;;;;;7.20;100.00;101284.94;5038629;28;45550;-79
2022/01/10 06:29:31;;;;;;;;;65.00;50.00;;;;;7.19;100.00;101289.22;5037927;28;45764;-82
2022/01/10 06:31:57;;;;;;;;;64.00;50.25;;;;;7.20;100.00;101293.56;5038295;28;45328;-80
2022/01/10 06:34:23;;;;;;;;;61.75;47.25;;;;;7.21;100.00;101299.59;5037968;28;45421;-81
2022/01/10 06:36:48;;;;;;;;;60.00;49.25;;;;;7.16;100.00;101301.00;5038365;28;45370;-80
2022/01/10 06:39:14;;;;;;;;;65.75;52.00;;;;;7.13;100.00;101305.16;5037413;28;45405;-81
2022/01/10 06:41:39;;;;;;;;;60.25;48.00;;;;;7.12;100.00;101315.34;5037159;28;45351;-80
2022/01/10 06:44:05;;;;;;;;;58.00;48.25;;;;;7.07;100.00;101319.28;5041747;28;45382;-81
2022/01/10 06:46:31;;;;;;;;;60.25;47.75;;;;;7.01;100.00;101322.34;5040478;28;45439;-81
2022/01/10 06:48:56;;;;;;;;;64.00;52.00;;;;;7.01;100.00;101327.47;5022308;28;45418;-80
2022/01/10 06:51:22;;;;;;;;;58.75;49.25;;;;;7.02;100.00;101338.69;5037290;28;45553;-80
2022/01/10 06:53:47;;;;;;;;;60.75;48.50;;;;;7.02;100.00;101349.00;5037142;28;45468;-80
2022/01/10 06:56:13;;;;;;;;;43.75;36.00;;;;;7.03;100.00;101364.53;5037640;28;45272;-81
2022/01/10 06:58:43;;;;;;;;;59.25;48.75;;;;;6.99;100.00;101364.22;5036960;28;46641;-81
2022/01/10 07:01:09;;;;;;;;;58.25;47.00;;;;;6.94;100.00;101369.06;5033184;28;46406;-80
2022/01/10 07:03:34;;;;;;;;;55.75;46.00;;;;;6.89;100.00;101366.16;5035717;28;45534;-81
2022/01/10 07:06:00;;;;;;;;;59.50;48.50;;;;;6.89;100.00;101385.84;5019607;28;45409;-81
2022/01/10 07:08:26;;;;;;;;;59.25;47.50;;;;;6.89;100.00;101389.34;5036432;28;45503;-84
2022/01/10 07:10:51;;;;;;;;;55.75;44.75;;;;;6.87;100.00;101390.91;5020714;28;45484;-86
2022/01/10 07:13:17;;;;;;;;;56.75;43.25;;;;;6.93;100.00;101400.72;5045166;28;44795;-82
2022/01/10 07:15:42;;;;;;;;;62.00;49.00;;;;;6.92;100.00;101414.38;5043487;28;45404;-80
2022/01/10 07:18:08;;;;;;;;;59.25;45.25;;;;;6.92;100.00;101423.00;5038326;28;45898;-85
2022/01/10 07:20:33;;;;;;;;;57.00;45.75;;;;;6.93;100.00;101429.94;5037358;28;45610;-85
2022/01/10 07:22:59;;;;;;;;;55.00;44.25;;;;;6.93;100.00;101431.63;5037056;28;45418;-81
2022/01/10 07:25:25;;;;;;;;;60.75;48.00;;;;;6.93;100.00;101442.81;5038624;28;45517;-78
2022/01/10 07:27:51;;;;;;;;;54.50;44.00;;;;;6.96;100.00;101460.16;5037473;28;45438;-86
2022/01/10 07:30:17;;;;;;;;;57.75;45.00;;;;;6.98;100.00;101461.13;5016461;28;45455;-79
2022/01/10 07:32:46;;;;;;;;;54.50;44.25;;;;;7.01;100.00;101465.63;5029988;28;45463;-83
2022/01/10 07:35:11;;;;;;;;;59.25;47.25;;;;;7.03;100.00;101470.09;5036115;28;45515;-82
2022/01/10 07:37:38;;;;;;;;;53.00;43.25;;;;;7.04;100.00;101474.47;5035322;28;45839;-82
2022/01/10 07:40:05;;;;;;;;;57.50;45.75;;;;;7.06;100.00;101470.31;5037405;28;45940;-81
2022/01/10 07:42:30;;;;;;;;;58.00;45.50;;;;;7.07;100.00;101482.38;5038282;28;45610;-83
2022/01/10 07:44:56;;;;;;;;;62.50;46.50;;;;;7.09;100.00;101491.09;5041780;28;45438;-79
2022/01/10 07:47:22;;;;;;;;;53.50;42.25;;;;;7.10;100.00;101492.00;5044517;28;45449;-82
2022/01/10 07:49:48;;;;;;;;;57.25;43.00;;;;;7.11;100.00;101499.84;5038057;28;45191;-83
2022/01/10 07:52:13;;;;;;;;;56.75;46.00;;;;;7.11;100.00;101507.56;5024415;28;45168;-82
2022/01/10 07:54:39;;;;;;;;;53.25;42.50;;;;;7.11;100.00;101507.56;5037553;28;45580;-81
2022/01/10 07:57:05;;;;;;;;;57.50;41.25;;;;;7.10;100.00;101518.66;5026320;28;46384;-81
2022/01/10 07:59:31;;;;;;;;;53.00;41.50;;;;;7.13;100.00;101536.91;5016671;28;45425;-80
2022/01/10 08:01:57;;;;;;;;;52.50;40.50;;;;;7.15;100.00;101530.97;5029225;28;45435;-85
2022/01/10 08:04:22;;;;;;;;;53.50;41.25;;;;;7.16;100.00;101536.22;5033780;28;45530;-85
2022/01/10 08:06:48;;;;;;;;;51.00;41.00;;;;;7.16;100.00;101537.91;5022941;28;45371;-87
2022/01/10 08:09:14;;;;;;;;;49.75;42.00;;;;;7.15;100.00;101552.44;5035765;28;45484;-89
2022/01/10 08:11:40;;;;;;;;;57.00;43.25;;;;;7.11;100.00;101553.91;5040503;28;45481;-84
2022/01/10 08:14:06;;;;;;;;;53.50;44.75;;;;;7.11;100.00;101564.22;5042945;28;45542;-89
2022/01/10 08:16:32;;;;;;;;;54.25;42.00;;;;;7.13;100.00;101569.47;5037886;28;45604;-83
2022/01/10 08:18:58;;;;;;;;;50.75;43.25;;;;;7.09;100.00;101562.31;5035956;28;45437;-83
2022/01/10 08:21:23;;;;;;;;;55.00;43.25;;;;;7.04;100.00;101566.22;5026565;28;45591;-82
2022/01/10 08:23:49;;;;;;;;;57.50;43.50;;;;;7.07;100.00;101577.63;5012579;28;45554;-82
2022/01/10 08:26:16;;;;;;;;;57.50;43.50;;;;;7.09;100.00;101573.50;5020844;28;45479;-84
2022/01/10 08:28:42;;;;;;;;;54.75;42.25;;;;;7.11;100.00;101574.50;5027256;28;45322;-80
2022/01/10 08:31:10;;;;;;;;;54.50;42.25;;;;;7.15;100.00;101588.50;5016871;28;45392;-78
2022/01/10 08:33:36;;;;;;;;;46.25;39.00;;;;;7.14;100.00;101589.28;5022891;28;45481;-80
2022/01/10 08:36:02;;;;;;;;;47.50;39.50;;;;;7.16;100.00;101589.41;5032655;28;46583;-84
2022/01/10 08:38:28;;;;;;;;;50.50;39.75;;;;;7.17;100.00;101594.66;5044248;28;45801;-86
2022/01/10 08:40:53;;;;;;;;;50.25;41.25;;;;;7.18;100.00;101598.16;5043596;28;45280;-77
2022/01/10 08:43:19;;;;;;;;;44.50;38.25;;;;;7.15;100.00;101603.94;5022349;28;45372;-80
2022/01/10 08:45:45;;;;;;;;;43.75;37.50;;;;;7.19;100.00;101608.53;5028526;28;46184;-79
2022/01/10 08:48:10;;;;;;;;;49.25;37.25;;;;;7.21;100.00;101609.56;5013909;28;45222;-89
2022/01/10 08:50:37;;;;;;;;;45.75;38.50;;;;;7.24;100.00;101608.88;5034928;28;45643;-86
2022/01/10 08:53:08;;;;;;;;;49.00;39.00;;;;;7.25;100.00;101620.97;5038167;28;45561;-85
2022/01/10 08:55:34;;;;;;;;;47.25;38.50;;;;;7.25;100.00;101620.97;5025685;28;46010;-86
2022/01/10 08:58:01;;;;;;;;;44.50;38.75;;;;;7.28;100.00;101624.66;5016933;28;45241;-86
2022/01/10 09:00:27;;;;;;;;;44.75;35.25;;;;;7.31;100.00;101635.97;5032288;28;45479;-78
2022/01/10 09:02:53;;;;;;;;;44.75;39.25;;;;;7.29;100.00;101638.41;5022835;28;45450;-85
2022/01/10 09:05:18;;;;;;;;;32.50;29.00;;;;;7.31;100.00;101635.97;5028560;28;45772;-90
2022/01/10 09:07:44;;;;;;;;;45.50;38.50;;;;;7.33;100.00;101648.16;5034552;28;45536;-93
2022/01/10 09:10:10;;;;;;;;;39.75;36.00;;;;;7.39;100.00;101648.63;5035645;28;45461;-86
2022/01/10 09:12:38;;;;;;;;;45.00;38.75;;;;;7.43;100.00;101658.34;5030905;28;45520;-80
2022/01/10 09:15:07;;;;;;;;;31.25;28.75;;;;;7.49;100.00;101665.59;5023295;28;45296;-81
2022/01/10 09:17:33;;;;;;;;;30.50;27.50;;;;;7.55;100.00;101663.47;5028150;28;45874;-85
2022/01/10 09:19:59;;;;;;;;;31.25;26.00;;;;;7.60;100.00;101679.25;5018491;28;45320;-86
2022/01/10 09:22:25;;;;;;;;;25.75;21.25;;;;;7.63;100.00;101681.16;5036284;28;45375;-79
2022/01/10 09:24:51;;;;;;;;;22.25;19.25;;;;;7.64;100.00;101691.56;5036121;28;45979;-82
2022/01/10 09:27:17;;;;;;;;;26.25;23.25;;;;;7.66;100.00;101689.13;5032635;28;45971;-76
2022/01/10 09:29:46;;;;;;;;;25.25;22.25;;;;;7.69;100.00;101690.22;5024794;28;45383;-76
2022/01/10 09:32:11;;;;;;;;;28.25;24.00;;;;;7.71;100.00;101691.22;5033291;28;45229;-82
2022/01/10 09:34:37;;;;;;;;;24.25;24.25;;;;;7.72;100.00;101697.25;5029797;28;45458;-86
2022/01/10 09:37:04;;;;;;;;;25.50;22.50;;;;;7.72;100.00;101699.84;5029505;28;45505;-86
2022/01/10 09:39:30;;;;;;;;;32.00;28.00;;;;;7.70;100.00;101698.84;5034581;28;45323;-86
2022/01/10 09:41:57;;;;;;;;;21.75;20.00;;;;;7.68;100.00;101697.81;5044455;28;45679;-88
2022/01/10 09:44:24;;;;;;;;;25.50;22.25;;;;;7.70;100.00;101703.97;5024784;28;46045;-86
2022/01/10 09:46:50;;;;;;;;;26.75;25.50;;;;;7.74;100.00;101698.28;5008056;28;45491;-82
2022/01/10 09:49:17;;;;;;;;;33.25;26.50;;;;;7.75;100.00;101698.38;5034395;28;45446;-86
2022/01/10 09:51:43;;;;;;;;;35.00;26.25;;;;;7.75;100.00;101708.69;5018202;28;45619;-80
2022/01/10 09:54:09;;;;;;;;;28.75;24.25;;;;;7.79;100.00;101720.09;5018872;28;45913;-81
2022/01/10 09:56:35;;;;;;;;;28.75;22.50;;;;;7.83;100.00;101721.25;5018709;28;45975;-79
2022/01/10 09:59:01;;;;;;;;;27.75;25.50;;;;;7.84;100.00;101723.91;5019073;28;45332;-81
2022/01/10 10:01:30;;;;;;;;;28.50;25.00;;;;;7.86;100.00;101735.25;5019227;28;45317;-81
2022/01/10 10:03:59;;;;;;;;;27.75;25.25;;;;;7.88;100.00;101746.53;5019452;28;45924;-81
2022/01/10 10:06:27;;;;;;;;;28.50;23.50;;;;;7.87;100.00;101749.00;5020591;28;45375;-82
2022/01/10 10:08:57;;;;;;;;;29.00;24.75;;;;;7.86;100.00;101745.56;5030223;28;46041;-81
2022/01/10 10:11:23;;;;;;;;;30.25;27.75;;;;;7.89;100.00;101747.44;5015819;28;45519;-81
2022/01/10 10:13:56;;;;;;;;;30.75;27.00;;;;;7.93;100.00;101749.47;5012434;28;46596;-80
2022/01/10 10:16:22;;;;;;;;;36.00;32.00;;;;;7.94;100.00;101747.75;5020469;28;45883;-82
2022/01/10 10:18:49;;;;;;;;;36.25;31.50;;;;;7.98;100.00;101750.66;5021203;28;45288;-82
2022/01/10 10:21:18;;;;;;;;;32.50;28.00;;;;;8.00;100.00;101759.41;5038738;28;45465;-81
2022/01/10 10:23:49;;;;;;;;;27.50;26.00;;;;;8.03;100.00;101757.06;5038500;28;45382;-84
2022/01/10 10:26:25;;;;;;;;;32.75;27.50;;;;;8.03;100.00;101756.16;5038655;28;46044;-83
2022/01/10 10:28:54;;;;;;;;;38.25;33.25;;;;;8.03;100.00;101762.22;5036740;28;45356;-79
2022/01/10 10:31:42;;;;;;;;;36.50;30.50;;;;;8.04;100.00;101760.50;5036325;28;45320;-82
2022/01/10 10:34:08;;;;;;;;;34.50;29.50;;;;;8.08;100.00;101761.63;5019378;28;45411;-82
2022/01/10 10:36:36;;;;;;;;;42.25;31.25;;;;;8.09;100.00;101761.75;5018744;28;45784;-83
2022/01/10 10:39:07;;;;;;;;;33.25;26.00;;;;;8.12;100.00;101759.34;5020360;28;45324;-82
2022/01/10 10:41:34;;;;;;;;;43.75;35.00;;;;;8.14;100.00;101764.66;5038479;28;45441;-81
2022/01/10 10:44:00;;;;;;;;;36.25;28.50;;;;;8.17;100.00;101772.59;5015907;28;48006;-80
2022/01/10 10:46:27;;;;;;;;;41.00;33.75;;;;;8.17;100.00;101773.50;5018407;28;46064;-82
2022/01/10 10:49:03;;;;;;;;;35.75;30.25;;;;;8.14;100.00;101774.97;5036898;28;45296;-81
2022/01/10 10:51:37;;;;;;;;;39.50;30.25;;;;;8.15;100.00;101784.50;5036286;28;45310;-85
2022/01/10 10:54:07;;;;;;;;;36.75;28.00;;;;;8.15;100.00;101789.66;5031430;28;46301;-85
2022/01/10 10:56:38;;;;;;;;;40.00;33.75;;;;;8.19;100.00;101791.66;5018409;28;45943;-83
2022/01/10 10:59:06;;;;;;;;;42.75;34.50;;;;;8.22;100.00;101794.44;5023876;28;45453;-83
2022/01/10 11:01:32;;;;;;;;;38.75;32.00;;;;;8.24;100.00;101791.97;5031671;28;45364;-83
2022/01/10 11:03:58;;;;;;;;;38.50;31.75;;;;;8.28;100.00;101793.97;5024852;28;46070;-81
2022/01/10 11:06:26;;;;;;;;;44.50;36.25;;;;;8.30;100.00;101802.72;5027706;28;45510;-81
2022/01/10 11:08:53;;;;;;;;;42.50;33.00;;;;;8.31;100.00;101797.66;5041693;28;45382;-83
2022/01/10 11:11:23;;;;;;;;;41.25;34.75;;;;;8.35;100.00;101804.84;5034923;28;46947;-81
2022/01/10 11:13:55;;;;;;;;;41.50;33.00;;;;;8.39;100.00;101798.22;5051097;28;46208;-86
2022/01/10 11:16:22;;;;;;;;;35.25;33.00;;;;;8.42;100.00;101800.09;5057476;28;45291;-84
2022/01/10 11:18:49;;;;;;;;;41.75;33.25;;;;;8.40;100.00;101788.78;5024669;28;45426;-79
2022/01/10 11:21:16;;;;;;;;;35.00;31.75;;;;;8.43;100.00;101784.72;5036381;28;45563;-78
2022/01/10 11:23:44;;;;;;;;;39.75;35.50;;;;;8.47;100.00;101796.16;5029992;28;45929;-81
2022/01/10 11:26:12;;;;;;;;;39.25;32.75;;;;;8.47;100.00;101807.41;5028780;28;45284;-85
2022/01/10 11:28:50;;;;;;;;;38.25;30.50;;;;;8.43;100.00;101810.50;5019064;28;45375;-79
2022/01/10 11:31:27;;;;;;;;;35.25;30.25;;;;;8.42;100.00;101815.59;5027138;28;45344;-84
2022/01/10 11:33:56;;;;;;;;;29.00;27.75;;;;;8.43;100.00;101822.53;5031361;28;45474;-83
2022/01/10 11:36:24;;;;;;;;;35.50;30.25;;;;;8.42;100.00;101824.25;5035911;28;45497;-78
2022/01/10 11:38:53;;;;;;;;;34.00;29.50;;;;;8.42;100.00;101818.16;5019799;28;45421;-80
2022/01/10 11:41:27;;;;;;;;;37.00;30.25;;;;;8.39;100.00;101821.44;5021700;28;45281;-78
2022/01/10 11:44:13;;;;;;;;;38.25;34.00;;;;;8.36;100.00;101829.88;5023893;28;45420;-79
2022/01/10 11:46:44;;;;;;;;;40.00;35.50;;;;;8.34;100.00;101833.09;5028009;28;45443;-77
2022/01/10 11:49:11;;;;;;;;;32.50;30.00;;;;;8.31;100.00;101833.78;5017852;28;45316;-82
2022/01/10 11:51:37;;;;;;;;;44.50;37.25;;;;;8.29;100.00;101837.06;5017979;28;45309;-81
2022/01/10 11:54:44;;;;;;;;;41.50;32.50;;;;;8.32;100.00;101834.66;5024095;28;45851;-84
2022/01/10 11:57:12;;;;;;;;;38.50;33.25;;;;;8.36;100.00;101839.28;5017607;28;45943;-82
2022/01/10 11:59:39;;;;;;;;;43.50;35.00;;;;;8.40;100.00;101840.38;5039577;28;45412;-88
2022/01/10 12:02:10;;;;;;;;;40.25;35.25;;;;;8.43;100.00;101846.66;5019801;28;45343;-79
2022/01/10 12:04:39;;;;;;;;;41.00;34.00;;;;;8.45;100.00;101832.16;5044127;28;45621;-81
2022/01/10 12:07:08;;;;;;;;;38.00;33.25;;;;;8.49;100.00;101841.06;5036812;28;45364;-81
2022/01/10 12:09:34;;;;;;;;;37.75;33.25;;;;;8.51;100.00;101840.41;5037195;28;45658;-80
2022/01/10 12:12:02;;;;;;;;;35.50;32.25;;;;;8.52;100.00;101841.28;5037152;28;45605;-82
2022/01/10 12:14:29;;;;;;;;;32.00;27.75;;;;;8.56;100.00;101848.47;5036764;28;46517;-81
2022/01/10 12:16:56;;;;;;;;;41.50;31.00;;;;;8.51;100.00;101855.88;5036901;28;45376;-83
2022/01/10 12:19:22;;;;;;;;;42.50;36.50;;;;;8.51;100.00;101855.88;5036635;28;45351;-79
2022/01/10 12:21:48;;;;;;;;;49.75;36.00;;;;;8.54;100.00;101862.03;5036490;28;45582;-82
2022/01/10 12:24:14;;;;;;;;;41.75;37.00;;;;;8.52;100.00;101867.09;5039599;28;46175;-81
2022/01/10 12:26:41;;;;;;;;;27.50;19.00;;;;;8.54;100.00;101868.09;5036854;28;45352;-79
2022/01/10 12:29:08;;;;;;;;;47.75;36.75;;;;;8.55;100.00;101874.13;5018951;28;45319;-84
2022/01/10 12:31:36;;;;;;;;;49.25;35.50;;;;;8.55;100.00;101876.72;5037034;28;45612;-83
2022/01/10 12:34:03;;;;;;;;;49.50;39.50;;;;;8.59;100.00;101882.19;5019985;28;46653;-83
2022/01/10 12:36:31;;;;;;;;;39.00;35.50;;;;;8.60;100.00;101876.25;5036734;28;45864;-79
2022/01/10 12:39:03;;;;;;;;;50.50;38.50;;;;;8.61;100.00;101884.91;5036552;28;45397;-81
2022/01/10 12:41:29;;;;;;;;;42.75;34.50;;;;;8.63;100.00;101885.94;5037226;28;45372;-79
2022/01/10 12:43:56;;;;;;;;;40.75;34.25;;;;;8.63;100.00;101891.09;5036772;28;46346;-82
2022/01/10 12:46:23;;;;;;;;;40.50;35.00;;;;;8.62;100.00;101892.75;5036646;28;45878;-84
2022/01/10 12:48:51;;;;;;;;;47.50;37.25;;;;;8.61;100.00;101893.53;5036855;28;45408;-84
2022/01/10 12:51:21;;;;;;;;;37.25;32.25;;;;;8.59;100.00;101896.81;5038844;28;45288;-83
2022/01/10 12:53:48;;;;;;;;;52.25;36.75;;;;;8.58;100.00;101898.50;5042180;28;45392;-82
2022/01/10 12:56:19;;;;;;;;;38.50;32.00;;;;;8.60;100.00;101899.50;5037241;28;45399;-80
2022/01/10 12:58:45;;;;;;;;;42.75;38.50;;;;;8.62;100.00;101905.66;5037755;28;45166;-86
2022/01/10 13:01:13;;;;;;;;;40.50;36.25;;;;;8.65;100.00;101904.97;5040293;28;45594;-81
2022/01/10 13:03:42;;;;;;;;;45.00;37.75;;;;;8.66;100.00;101906.78;5037435;28;45453;-84
2022/01/10 13:06:09;;;;;;;;;40.50;35.25;;;;;8.68;100.00;101902.63;5036513;28;45845;-85
2022/01/10 13:08:39;;;;;;;;;47.75;37.50;;;;;8.67;100.00;101904.31;5039256;28;45200;-82
2022/01/10 13:11:14;;;;;;;;;49.25;37.75;;;;;8.67;100.00;101904.31;5039900;28;45401;-81
2022/01/10 13:13:44;;;;;;;;;41.50;34.75;;;;;8.70;100.00;101906.22;5039488;28;45444;-84
2022/01/10 13:16:23;;;;;;;;;48.25;36.25;;;;;8.70;100.00;101908.78;5039575;28;45808;-80
2022/01/10 13:19:02;;;;;;;;;45.00;36.00;;;;;8.71;100.00;101912.25;5040126;28;45366;-77
2022/01/10 13:21:30;;;;;;;;;38.50;34.00;;;;;8.71;100.00;101922.59;5040397;28;45528;-80
2022/01/10 13:24:13;;;;;;;;;40.50;33.50;;;;;8.72;100.00;101926.97;5021199;28;47476;-80
2022/01/10 13:27:08;;;;;;;;;51.00;39.00;;;;;8.71;100.00;101928.66;5039427;28;45279;-80
2022/01/10 13:29:51;;;;;;;;;37.75;32.75;;;;;8.68;100.00;101928.44;5039130;28;45314;-81
2022/01/10 13:32:37;;;;;;;;;48.25;38.50;;;;;8.61;100.00;101932.25;5039483;28;45382;-79
2022/01/10 13:35:07;;;;;;;;;36.25;33.50;;;;;8.60;100.00;101929.59;5039041;28;46031;-81
2022/01/10 13:37:45;;;;;;;;;49.25;36.00;;;;;8.60;100.00;101935.63;5037666;28;45886;-84
2022/01/10 13:40:16;;;;;;;;;44.25;35.00;;;;;8.60;100.00;101935.63;5038345;28;45360;-80
2022/01/10 13:42:46;;;;;;;;;32.00;29.00;;;;;8.60;100.00;101945.06;5039543;28;45232;-79
2022/01/10 13:45:13;;;;;;;;;46.00;35.50;;;;;8.63;100.00;101941.03;5039150;28;46250;-77
2022/01/10 13:47:54;;;;;;;;;36.25;29.50;;;;;8.66;100.00;101948.06;5021345;28;45306;-80
2022/01/10 13:50:27;;;;;;;;;36.00;33.25;;;;;8.70;100.00;101959.50;5021640;28;45391;-81
2022/01/10 13:53:09;;;;;;;;;42.75;36.00;;;;;8.71;100.00;101958.72;5039168;28;45399;-80
2022/01/10 13:55:36;;;;;;;;;44.00;35.50;;;;;8.72;100.00;101957.94;5038521;28;45283;-77
2022/01/10 13:58:04;;;;;;;;;39.00;33.75;;;;;8.69;100.00;101956.06;5020670;28;45881;-79
2022/01/10 14:00:31;;;;;;;;;42.75;36.00;;;;;8.71;100.00;101963.88;5038718;28;45445;-78
2022/01/10 14:02:57;;;;;;;;;41.25;33.75;;;;;8.71;100.00;101969.97;5038876;28;45445;-79
2022/01/10 14:05:28;;;;;;;;;40.00;35.00;;;;;8.71;100.00;101969.97;5038670;28;46126;-83
2022/01/10 14:07:56;;;;;;;;;41.75;35.00;;;;;8.71;100.00;101969.97;5038975;28;45984;-81
2022/01/10 14:10:24;;;;;;;;;46.75;35.50;;;;;8.70;100.00;101965.59;5038766;28;45336;-81
2022/01/10 14:12:51;;;;;;;;;38.50;31.75;;;;;8.67;100.00;101968.88;5037400;28;45665;-81
2022/01/10 14:15:25;;;;;;;;;33.25;28.50;;;;;8.64;100.00;101970.28;5039055;28;46469;-79
2022/01/10 14:17:51;;;;;;;;;44.75;36.75;;;;;8.62;100.00;101977.94;5039852;28;45327;-81
2022/01/10 14:20:17;;;;;;;;;42.50;35.75;;;;;8.60;100.00;101976.94;5021107;28;45382;-84
2022/01/10 14:22:43;;;;;;;;;45.50;35.75;;;;;8.59;100.00;101972.56;5039405;28;45546;-81
2022/01/10 14:25:09;;;;;;;;;36.50;32.00;;;;;8.60;100.00;101979.50;5038596;28;45725;-81
2022/01/10 14:27:35;;;;;;;;;40.25;34.50;;;;;8.62;100.00;101984.81;5038430;28;45438;-82
2022/01/10 14:30:01;;;;;;;;;35.75;28.50;;;;;8.63;100.00;101990.06;5038951;28;45355;-82
2022/01/10 14:32:27;;;;;;;;;33.50;31.00;;;;;8.59;100.00;101988.03;5038615;28;45323;-83
2022/01/10 14:34:53;;;;;;;;;40.50;33.50;;;;;8.57;100.00;101986.16;5037141;28;45395;-82
2022/01/10 14:37:18;;;;;;;;;40.50;31.00;;;;;8.57;100.00;102001.63;5038285;28;45293;-83
2022/01/10 14:39:44;;;;;;;;;37.00;32.75;;;;;8.56;100.00;102008.50;5038821;28;45349;-77
2022/01/10 14:42:10;;;;;;;;;35.50;30.75;;;;;8.55;100.00;102009.28;5039528;28;45236;-81
2022/01/10 14:44:35;;;;;;;;;35.75;26.75;;;;;8.56;100.00;102016.25;5040236;28;46420;-84
2022/01/10 14:47:01;;;;;;;;;32.50;27.00;;;;;8.54;100.00;102009.16;5023369;28;45305;-85
2022/01/10 14:49:27;;;;;;;;;42.25;33.00;;;;;8.48;100.00;102010.50;5041114;28;45205;-82
2022/01/10 14:51:52;;;;;;;;;35.50;28.25;;;;;8.45;100.00;102022.28;5038407;28;45513;-82